sensor_id;sensor_type;location;lat;lon;timestamp;temperature;humidity
1137;DHT22;557;48.466;7.950;2022-08-21T00:02:15;16.90;42.60
1137;DHT22;557;48.466;7.950;2022-08-21T00:05:01;17.00;46.70
1137;DHT22;557;48.466;7.950;2022-08-21T00:07:47;16.90;50.80
1137;DHT22;557;48.466;7.950;2022-08-21T00:10:34;16.80;59.50
1137;DHT22;557;48.466;7.950;2022-08-21T00:13:20;16.80;78.00
1137;DHT22;557;48.466;7.950;2022-08-21T00:16:06;16.80;81.90
1137;DHT22;557;48.466;7.950;2022-08-21T00:18:53;16.70;90.30
1137;DHT22;557;48.466;7.950;2022-08-21T00:21:39;16.70;83.60
1137;DHT22;557;48.466;7.950;2022-08-21T00:24:25;16.70;84.10
1137;DHT22;557;48.466;7.950;2022-08-21T00:27:11;16.60;80.50
1137;DHT22;557;48.466;7.950;2022-08-21T00:29:56;16.60;65.70
1137;DHT22;557;48.466;7.950;2022-08-21T00:32:44;16.60;59.30
1137;DHT22;557;48.466;7.950;2022-08-21T00:35:35;16.50;72.20
1137;DHT22;557;48.466;7.950;2022-08-21T00:38:20;16.50;74.60
1137;DHT22;557;48.466;7.950;2022-08-21T00:41:08;16.50;72.30
1137;DHT22;557;48.466;7.950;2022-08-21T00:43:55;16.50;73.60
1137;DHT22;557;48.466;7.950;2022-08-21T00:46:41;16.50;76.00
1137;DHT22;557;48.466;7.950;2022-08-21T00:49:27;16.50;82.80
1137;DHT22;557;48.466;7.950;2022-08-21T00:52:17;16.50;86.40
1137;DHT22;557;48.466;7.950;2022-08-21T00:55:07;16.40;91.90
1137;DHT22;557;48.466;7.950;2022-08-21T00:57:55;16.40;99.90
1137;DHT22;557;48.466;7.950;2022-08-21T01:00:45;16.30;99.90
1137;DHT22;557;48.466;7.950;2022-08-21T01:03:33;16.30;99.90
1137;DHT22;557;48.466;7.950;2022-08-21T01:06:19;16.20;99.90
1137;DHT22;557;48.466;7.950;2022-08-21T01:09:06;16.20;99.90
1137;DHT22;557;48.466;7.950;2022-08-21T01:11:53;16.20;99.90
1137;DHT22;557;48.466;7.950;2022-08-21T01:14:40;16.10;99.90
1137;DHT22;557;48.466;7.950;2022-08-21T01:17:27;16.20;99.90
1137;DHT22;557;48.466;7.950;2022-08-21T01:20:12;16.10;99.90
1137;DHT22;557;48.466;7.950;2022-08-21T01:23:00;16.10;99.90
1137;DHT22;557;48.466;7.950;2022-08-21T01:25:46;16.10;99.90
1137;DHT22;557;48.466;7.950;2022-08-21T01:28:36;16.10;99.90
1137;DHT22;557;48.466;7.950;2022-08-21T01:31:23;16.00;99.90
1137;DHT22;557;48.466;7.950;2022-08-21T01:34:10;16.00;99.90
1137;DHT22;557;48.466;7.950;2022-08-21T01:36:56;16.00;99.90
1137;DHT22;557;48.466;7.950;2022-08-21T01:39:43;15.90;99.90
1137;DHT22;557;48.466;7.950;2022-08-21T01:42:35;15.90;99.90
1137;DHT22;557;48.466;7.950;2022-08-21T01:45:22;15.90;99.90
1137;DHT22;557;48.466;7.950;2022-08-21T01:48:07;15.80;99.90
1137;DHT22;557;48.466;7.950;2022-08-21T01:50:53;15.80;99.90
1137;DHT22;557;48.466;7.950;2022-08-21T01:53:39;15.80;99.90
1137;DHT22;557;48.466;7.950;2022-08-21T01:56:26;15.80;99.90
1137;DHT22;557;48.466;7.950;2022-08-21T01:59:12;15.70;99.90
1137;DHT22;557;48.466;7.950;2022-08-21T02:01:58;15.70;99.90
1137;DHT22;557;48.466;7.950;2022-08-21T02:04:44;15.60;99.90
1137;DHT22;557;48.466;7.950;2022-08-21T02:07:36;15.60;99.90
1137;DHT22;557;48.466;7.950;2022-08-21T02:10:24;15.60;99.90
1137;DHT22;557;48.466;7.950;2022-08-21T02:13:12;15.60;99.90
1137;DHT22;557;48.466;7.950;2022-08-21T02:16:28;15.60;99.90
1137;DHT22;557;48.466;7.950;2022-08-21T02:19:16;15.50;99.90
1137;DHT22;557;48.466;7.950;2022-08-21T02:22:02;15.50;99.90
1137;DHT22;557;48.466;7.950;2022-08-21T02:24:47;15.50;99.90
1137;DHT22;557;48.466;7.950;2022-08-21T02:27:38;15.50;99.90
1137;DHT22;557;48.466;7.950;2022-08-21T02:30:29;15.50;99.90
1137;DHT22;557;48.466;7.950;2022-08-21T02:33:15;15.50;99.90
1137;DHT22;557;48.466;7.950;2022-08-21T02:36:03;15.50;99.90
1137;DHT22;557;48.466;7.950;2022-08-21T02:38:49;15.40;99.90
1137;DHT22;557;48.466;7.950;2022-08-21T02:41:35;15.40;99.90
1137;DHT22;557;48.466;7.950;2022-08-21T02:44:20;15.40;99.90
1137;DHT22;557;48.466;7.950;2022-08-21T02:47:07;15.30;99.90
1137;DHT22;557;48.466;7.950;2022-08-21T02:49:53;15.30;99.90
1137;DHT22;557;48.466;7.950;2022-08-21T02:52:39;15.30;99.90
1137;DHT22;557;48.466;7.950;2022-08-21T02:55:27;15.30;99.90
1137;DHT22;557;48.466;7.950;2022-08-21T02:58:15;15.30;99.90
1137;DHT22;557;48.466;7.950;2022-08-21T03:01:02;15.30;99.90
1137;DHT22;557;48.466;7.950;2022-08-21T03:03:49;15.30;99.90
1137;DHT22;557;48.466;7.950;2022-08-21T03:06:41;15.30;99.90
1137;DHT22;557;48.466;7.950;2022-08-21T03:09:27;15.30;99.90
1137;DHT22;557;48.466;7.950;2022-08-21T03:12:12;15.30;99.90
1137;DHT22;557;48.466;7.950;2022-08-21T03:14:58;15.20;99.90
1137;DHT22;557;48.466;7.950;2022-08-21T03:17:44;15.20;99.90
1137;DHT22;557;48.466;7.950;2022-08-21T03:20:32;15.20;99.90
1137;DHT22;557;48.466;7.950;2022-08-21T03:23:18;15.20;99.90
1137;DHT22;557;48.466;7.950;2022-08-21T03:26:04;15.20;99.90
1137;DHT22;557;48.466;7.950;2022-08-21T03:28:50;15.20;99.90
1137;DHT22;557;48.466;7.950;2022-08-21T03:31:36;15.20;99.90
1137;DHT22;557;48.466;7.950;2022-08-21T03:34:22;15.10;99.90
1137;DHT22;557;48.466;7.950;2022-08-21T03:37:22;15.10;99.90
1137;DHT22;557;48.466;7.950;2022-08-21T03:40:09;15.10;99.90
1137;DHT22;557;48.466;7.950;2022-08-21T03:42:55;15.10;99.90
1137;DHT22;557;48.466;7.950;2022-08-21T03:45:41;15.10;99.90
1137;DHT22;557;48.466;7.950;2022-08-21T03:48:26;15.00;99.90
1137;DHT22;557;48.466;7.950;2022-08-21T03:51:12;15.00;99.90
1137;DHT22;557;48.466;7.950;2022-08-21T03:53:59;15.00;99.90
1137;DHT22;557;48.466;7.950;2022-08-21T03:56:45;15.00;99.90
1137;DHT22;557;48.466;7.950;2022-08-21T03:59:30;14.90;99.90
1137;DHT22;557;48.466;7.950;2022-08-21T04:02:19;14.90;99.90
1137;DHT22;557;48.466;7.950;2022-08-21T04:05:07;14.80;99.90
1137;DHT22;557;48.466;7.950;2022-08-21T04:07:54;14.80;99.90
1137;DHT22;557;48.466;7.950;2022-08-21T04:10:43;14.70;99.90
1137;DHT22;557;48.466;7.950;2022-08-21T04:13:30;14.70;99.90
1137;DHT22;557;48.466;7.950;2022-08-21T04:16:16;14.70;99.90
1137;DHT22;557;48.466;7.950;2022-08-21T04:19:02;14.70;99.90
1137;DHT22;557;48.466;7.950;2022-08-21T04:21:47;14.80;99.90
1137;DHT22;557;48.466;7.950;2022-08-21T04:24:33;14.80;99.90
1137;DHT22;557;48.466;7.950;2022-08-21T04:27:21;14.80;99.90
1137;DHT22;557;48.466;7.950;2022-08-21T04:30:08;14.80;99.90
1137;DHT22;557;48.466;7.950;2022-08-21T04:32:55;14.70;99.90
1137;DHT22;557;48.466;7.950;2022-08-21T04:35:42;14.80;99.90
1137;DHT22;557;48.466;7.950;2022-08-21T04:38:27;14.80;99.90
1137;DHT22;557;48.466;7.950;2022-08-21T04:41:15;14.70;99.90
1137;DHT22;557;48.466;7.950;2022-08-21T04:44:03;14.70;99.90
1137;DHT22;557;48.466;7.950;2022-08-21T04:46:48;14.70;99.90
1137;DHT22;557;48.466;7.950;2022-08-21T04:49:34;14.70;99.90
1137;DHT22;557;48.466;7.950;2022-08-21T04:52:22;14.70;99.90
1137;DHT22;557;48.466;7.950;2022-08-21T04:55:08;14.70;99.90
1137;DHT22;557;48.466;7.950;2022-08-21T04:57:54;14.70;99.90
1137;DHT22;557;48.466;7.950;2022-08-21T05:00:41;14.70;99.90
1137;DHT22;557;48.466;7.950;2022-08-21T05:03:28;14.80;99.90
1137;DHT22;557;48.466;7.950;2022-08-21T05:06:16;14.80;99.90
1137;DHT22;557;48.466;7.950;2022-08-21T05:09:02;14.80;99.90
1137;DHT22;557;48.466;7.950;2022-08-21T05:11:48;14.90;99.90
1137;DHT22;557;48.466;7.950;2022-08-21T05:14:35;14.90;99.90
1137;DHT22;557;48.466;7.950;2022-08-21T05:17:22;14.90;99.90
1137;DHT22;557;48.466;7.950;2022-08-21T05:20:09;15.00;99.90
1137;DHT22;557;48.466;7.950;2022-08-21T05:22:55;15.00;99.90
1137;DHT22;557;48.466;7.950;2022-08-21T05:25:42;15.10;99.90
1137;DHT22;557;48.466;7.950;2022-08-21T05:28:28;15.20;99.90
1137;DHT22;557;48.466;7.950;2022-08-21T05:31:14;15.20;99.90
1137;DHT22;557;48.466;7.950;2022-08-21T05:34:01;15.30;99.90
1137;DHT22;557;48.466;7.950;2022-08-21T05:36:46;15.30;99.90
1137;DHT22;557;48.466;7.950;2022-08-21T05:39:32;15.40;99.90
1137;DHT22;557;48.466;7.950;2022-08-21T05:42:18;15.40;99.90
1137;DHT22;557;48.466;7.950;2022-08-21T05:45:04;15.50;99.90
1137;DHT22;557;48.466;7.950;2022-08-21T05:47:50;15.50;93.70
1137;DHT22;557;48.466;7.950;2022-08-21T05:50:38;15.60;93.10
1137;DHT22;557;48.466;7.950;2022-08-21T05:53:24;15.70;78.20
1137;DHT22;557;48.466;7.950;2022-08-21T05:56:12;15.60;81.50
1137;DHT22;557;48.466;7.950;2022-08-21T05:58:58;15.70;86.40
1137;DHT22;557;48.466;7.950;2022-08-21T06:01:44;15.70;73.00
1137;DHT22;557;48.466;7.950;2022-08-21T06:04:30;15.80;68.30
1137;DHT22;557;48.466;7.950;2022-08-21T06:07:22;15.90;53.30
1137;DHT22;557;48.466;7.950;2022-08-21T06:10:08;15.90;52.80
1137;DHT22;557;48.466;7.950;2022-08-21T06:12:54;16.00;40.00
1137;DHT22;557;48.466;7.950;2022-08-21T06:15:41;16.00;46.60
1137;DHT22;557;48.466;7.950;2022-08-21T06:18:27;16.10;33.10
1137;DHT22;557;48.466;7.950;2022-08-21T06:21:13;16.10;33.70
1137;DHT22;557;48.466;7.950;2022-08-21T06:24:00;16.20;27.40
1137;DHT22;557;48.466;7.950;2022-08-21T06:26:46;16.30;29.10
1137;DHT22;557;48.466;7.950;2022-08-21T06:29:32;16.40;12.40
1137;DHT22;557;48.466;7.950;2022-08-21T06:32:18;16.50;3.90
1137;DHT22;557;48.466;7.950;2022-08-21T06:35:04;16.60;1.00
1137;DHT22;557;48.466;7.950;2022-08-21T06:37:50;16.60;1.00
1137;DHT22;557;48.466;7.950;2022-08-21T06:40:38;16.70;1.00
1137;DHT22;557;48.466;7.950;2022-08-21T06:43:24;16.80;1.00
1137;DHT22;557;48.466;7.950;2022-08-21T06:46:10;16.90;1.00
1137;DHT22;557;48.466;7.950;2022-08-21T06:48:56;17.00;1.00
1137;DHT22;557;48.466;7.950;2022-08-21T06:51:42;17.20;1.00
1137;DHT22;557;48.466;7.950;2022-08-21T06:54:28;17.30;1.00
1137;DHT22;557;48.466;7.950;2022-08-21T06:57:16;17.40;1.00
1137;DHT22;557;48.466;7.950;2022-08-21T07:00:03;17.60;1.00
1137;DHT22;557;48.466;7.950;2022-08-21T07:02:49;17.70;1.00
1137;DHT22;557;48.466;7.950;2022-08-21T07:05:34;17.80;1.00
1137;DHT22;557;48.466;7.950;2022-08-21T07:08:20;18.10;1.00
1137;DHT22;557;48.466;7.950;2022-08-21T07:11:11;18.20;1.00
1137;DHT22;557;48.466;7.950;2022-08-21T07:13:59;18.40;1.00
1137;DHT22;557;48.466;7.950;2022-08-21T07:16:45;18.50;1.00
1137;DHT22;557;48.466;7.950;2022-08-21T07:19:30;18.60;99.90
1137;DHT22;557;48.466;7.950;2022-08-21T07:22:16;18.80;1.00
1137;DHT22;557;48.466;7.950;2022-08-21T07:25:04;19.10;99.90
1137;DHT22;557;48.466;7.950;2022-08-21T07:27:50;19.30;1.00
1137;DHT22;557;48.466;7.950;2022-08-21T07:30:37;19.40;99.90
1137;DHT22;557;48.466;7.950;2022-08-21T07:33:23;19.60;1.00
1137;DHT22;557;48.466;7.950;2022-08-21T07:36:10;19.70;1.00
1137;DHT22;557;48.466;7.950;2022-08-21T07:38:55;19.90;1.00
1137;DHT22;557;48.466;7.950;2022-08-21T07:41:41;20.10;1.00
1137;DHT22;557;48.466;7.950;2022-08-21T07:44:27;20.30;1.00
1137;DHT22;557;48.466;7.950;2022-08-21T07:47:14;20.40;99.90
1137;DHT22;557;48.466;7.950;2022-08-21T07:49:59;20.60;1.00
1137;DHT22;557;48.466;7.950;2022-08-21T07:52:45;20.60;1.00
1137;DHT22;557;48.466;7.950;2022-08-21T07:55:31;20.70;99.90
1137;DHT22;557;48.466;7.950;2022-08-21T07:58:17;20.90;99.10
1137;DHT22;557;48.466;7.950;2022-08-21T08:01:02;21.10;99.90
1137;DHT22;557;48.466;7.950;2022-08-21T08:03:50;21.20;1.00
1137;DHT22;557;48.466;7.950;2022-08-21T08:06:36;21.30;99.90
1137;DHT22;557;48.466;7.950;2022-08-21T08:09:21;21.40;99.90
1137;DHT22;557;48.466;7.950;2022-08-21T08:12:07;21.40;62.90
1137;DHT22;557;48.466;7.950;2022-08-21T08:14:54;21.50;99.90
1137;DHT22;557;48.466;7.950;2022-08-21T08:17:39;21.70;18.80
1137;DHT22;557;48.466;7.950;2022-08-21T08:20:27;21.80;1.00
1137;DHT22;557;48.466;7.950;2022-08-21T08:23:14;22.00;1.00
1137;DHT22;557;48.466;7.950;2022-08-21T08:26:00;22.20;1.00
1137;DHT22;557;48.466;7.950;2022-08-21T08:28:47;22.50;1.00
1137;DHT22;557;48.466;7.950;2022-08-21T08:31:33;22.80;1.00
1137;DHT22;557;48.466;7.950;2022-08-21T08:34:19;23.30;1.00
1137;DHT22;557;48.466;7.950;2022-08-21T08:37:08;23.70;99.90
1137;DHT22;557;48.466;7.950;2022-08-21T08:39:55;24.00;99.90
1137;DHT22;557;48.466;7.950;2022-08-21T08:42:40;24.10;99.90
1137;DHT22;557;48.466;7.950;2022-08-21T08:45:28;24.30;99.90
1137;DHT22;557;48.466;7.950;2022-08-21T08:48:26;24.50;99.90
1137;DHT22;557;48.466;7.950;2022-08-21T08:51:22;24.30;99.90
1137;DHT22;557;48.466;7.950;2022-08-21T08:54:14;23.90;99.90
1137;DHT22;557;48.466;7.950;2022-08-21T08:57:02;24.10;99.90
1137;DHT22;557;48.466;7.950;2022-08-21T08:59:50;24.40;99.90
1137;DHT22;557;48.466;7.950;2022-08-21T09:02:39;24.70;99.90
1137;DHT22;557;48.466;7.950;2022-08-21T09:05:29;24.80;99.90
1137;DHT22;557;48.466;7.950;2022-08-21T09:08:34;24.80;99.90
1137;DHT22;557;48.466;7.950;2022-08-21T09:15:12;25.30;99.90
1137;DHT22;557;48.466;7.950;2022-08-21T09:18:27;25.40;99.90
1137;DHT22;557;48.466;7.950;2022-08-21T09:21:19;25.80;99.90
1137;DHT22;557;48.466;7.950;2022-08-21T09:24:22;25.80;99.90
1137;DHT22;557;48.466;7.950;2022-08-21T09:27:13;25.60;85.80
1137;DHT22;557;48.466;7.950;2022-08-21T09:29:59;25.70;89.20
1137;DHT22;557;48.466;7.950;2022-08-21T09:32:47;25.70;82.30
1137;DHT22;557;48.466;7.950;2022-08-21T09:35:33;25.60;61.60
1137;DHT22;557;48.466;7.950;2022-08-21T09:38:26;25.50;51.40
1137;DHT22;557;48.466;7.950;2022-08-21T09:41:13;25.70;56.20
1137;DHT22;557;48.466;7.950;2022-08-21T09:43:59;26.10;72.10
1137;DHT22;557;48.466;7.950;2022-08-21T09:46:50;26.40;49.40
1137;DHT22;557;48.466;7.950;2022-08-21T09:49:40;26.60;46.20
1137;DHT22;557;48.466;7.950;2022-08-21T09:52:26;26.60;39.40
1137;DHT22;557;48.466;7.950;2022-08-21T09:55:16;26.10;36.50
1137;DHT22;557;48.466;7.950;2022-08-21T09:58:18;26.00;33.80
1137;DHT22;557;48.466;7.950;2022-08-21T10:01:06;26.20;29.10
1137;DHT22;557;48.466;7.950;2022-08-21T10:04:03;26.10;28.10
1137;DHT22;557;48.466;7.950;2022-08-21T10:06:50;26.00;24.70
1137;DHT22;557;48.466;7.950;2022-08-21T10:09:36;25.70;21.40
1137;DHT22;557;48.466;7.950;2022-08-21T10:12:26;25.80;21.90
1137;DHT22;557;48.466;7.950;2022-08-21T10:15:20;26.40;29.50
1137;DHT22;557;48.466;7.950;2022-08-21T10:18:12;26.90;32.90
1137;DHT22;557;48.466;7.950;2022-08-21T10:21:04;27.10;22.70
1137;DHT22;557;48.466;7.950;2022-08-21T10:24:00;26.80;15.60
1137;DHT22;557;48.466;7.950;2022-08-21T10:26:57;26.40;17.60
1137;DHT22;557;48.466;7.950;2022-08-21T10:29:50;26.50;13.10
1137;DHT22;557;48.466;7.950;2022-08-21T10:32:58;26.80;10.40
1137;DHT22;557;48.466;7.950;2022-08-21T10:35:51;26.80;8.80
1137;DHT22;557;48.466;7.950;2022-08-21T10:39:01;27.30;9.60
1137;DHT22;557;48.466;7.950;2022-08-21T10:42:12;28.00;12.10
1137;DHT22;557;48.466;7.950;2022-08-21T10:45:08;28.20;11.00
1137;DHT22;557;48.466;7.950;2022-08-21T10:48:03;27.90;4.70
1137;DHT22;557;48.466;7.950;2022-08-21T10:50:53;28.30;7.10
1137;DHT22;557;48.466;7.950;2022-08-21T10:53:47;28.60;3.90
1137;DHT22;557;48.466;7.950;2022-08-21T10:56:40;29.00;4.00
1137;DHT22;557;48.466;7.950;2022-08-21T10:59:31;28.70;1.00
1137;DHT22;557;48.466;7.950;2022-08-21T11:02:22;28.00;1.00
1137;DHT22;557;48.466;7.950;2022-08-21T11:05:15;27.60;1.00
1137;DHT22;557;48.466;7.950;2022-08-21T11:08:06;27.70;1.00
1137;DHT22;557;48.466;7.950;2022-08-21T11:10:59;27.60;1.00
1137;DHT22;557;48.466;7.950;2022-08-21T11:13:51;27.60;1.00
1137;DHT22;557;48.466;7.950;2022-08-21T11:16:41;28.30;1.00
1137;DHT22;557;48.466;7.950;2022-08-21T11:19:30;28.70;1.00
1137;DHT22;557;48.466;7.950;2022-08-21T11:22:21;29.20;1.00
1137;DHT22;557;48.466;7.950;2022-08-21T11:25:15;29.30;1.00
1137;DHT22;557;48.466;7.950;2022-08-21T11:28:06;29.60;1.00
1137;DHT22;557;48.466;7.950;2022-08-21T11:31:08;29.90;1.00
1137;DHT22;557;48.466;7.950;2022-08-21T11:34:13;29.30;1.00
1137;DHT22;557;48.466;7.950;2022-08-21T11:37:06;29.10;1.00
1137;DHT22;557;48.466;7.950;2022-08-21T11:40:02;29.00;1.00
1137;DHT22;557;48.466;7.950;2022-08-21T11:42:56;28.70;1.00
1137;DHT22;557;48.466;7.950;2022-08-21T11:45:50;28.70;1.00
1137;DHT22;557;48.466;7.950;2022-08-21T11:48:47;28.90;1.00
1137;DHT22;557;48.466;7.950;2022-08-21T11:51:37;29.20;1.00
1137;DHT22;557;48.466;7.950;2022-08-21T11:54:29;28.70;1.00
1137;DHT22;557;48.466;7.950;2022-08-21T11:57:21;28.90;1.00
1137;DHT22;557;48.466;7.950;2022-08-21T12:00:13;29.40;1.00
1137;DHT22;557;48.466;7.950;2022-08-21T12:03:09;30.20;1.00
1137;DHT22;557;48.466;7.950;2022-08-21T12:06:00;30.90;1.00
1137;DHT22;557;48.466;7.950;2022-08-21T12:08:58;31.30;1.00
1137;DHT22;557;48.466;7.950;2022-08-21T12:11:48;31.40;1.00
1137;DHT22;557;48.466;7.950;2022-08-21T12:14:41;32.00;1.00
1137;DHT22;557;48.466;7.950;2022-08-21T12:17:36;32.20;1.00
1137;DHT22;557;48.466;7.950;2022-08-21T12:20:35;31.20;1.00
1137;DHT22;557;48.466;7.950;2022-08-21T12:23:31;30.80;1.00
1137;DHT22;557;48.466;7.950;2022-08-21T12:26:27;30.70;1.00
1137;DHT22;557;48.466;7.950;2022-08-21T12:29:16;31.30;1.00
1137;DHT22;557;48.466;7.950;2022-08-21T12:32:24;31.80;1.00
1137;DHT22;557;48.466;7.950;2022-08-21T12:35:15;31.40;1.00
1137;DHT22;557;48.466;7.950;2022-08-21T12:38:07;30.70;1.00
1137;DHT22;557;48.466;7.950;2022-08-21T12:40:59;30.80;1.00
1137;DHT22;557;48.466;7.950;2022-08-21T12:43:50;30.40;1.00
1137;DHT22;557;48.466;7.950;2022-08-21T12:46:43;30.50;1.00
1137;DHT22;557;48.466;7.950;2022-08-21T12:49:35;30.70;1.00
1137;DHT22;557;48.466;7.950;2022-08-21T12:52:22;30.50;1.00
1137;DHT22;557;48.466;7.950;2022-08-21T12:55:12;30.30;1.00
1137;DHT22;557;48.466;7.950;2022-08-21T12:58:01;31.30;1.00
1137;DHT22;557;48.466;7.950;2022-08-21T13:00:51;32.40;1.00
1137;DHT22;557;48.466;7.950;2022-08-21T13:03:38;33.20;1.00
1137;DHT22;557;48.466;7.950;2022-08-21T13:06:26;34.00;1.00
1137;DHT22;557;48.466;7.950;2022-08-21T13:09:17;34.50;1.00
1137;DHT22;557;48.466;7.950;2022-08-21T13:12:07;34.80;1.00
1137;DHT22;557;48.466;7.950;2022-08-21T13:14:58;34.90;1.00
1137;DHT22;557;48.466;7.950;2022-08-21T13:17:47;34.60;1.00
1137;DHT22;557;48.466;7.950;2022-08-21T13:20:35;33.80;1.00
1137;DHT22;557;48.466;7.950;2022-08-21T13:23:24;33.00;1.00
1137;DHT22;557;48.466;7.950;2022-08-21T13:26:15;32.30;1.00
1137;DHT22;557;48.466;7.950;2022-08-21T13:29:07;32.10;1.00
1137;DHT22;557;48.466;7.950;2022-08-21T13:32:00;32.50;1.00
1137;DHT22;557;48.466;7.950;2022-08-21T13:34:47;32.60;1.00
1137;DHT22;557;48.466;7.950;2022-08-21T13:37:36;32.60;1.00
1137;DHT22;557;48.466;7.950;2022-08-21T13:40:25;32.30;1.00
1137;DHT22;557;48.466;7.950;2022-08-21T13:43:13;31.70;1.00
1137;DHT22;557;48.466;7.950;2022-08-21T13:46:06;31.80;1.00
1137;DHT22;557;48.466;7.950;2022-08-21T13:48:55;32.50;1.00
1137;DHT22;557;48.466;7.950;2022-08-21T13:51:41;33.20;1.00
1137;DHT22;557;48.466;7.950;2022-08-21T13:54:34;33.30;1.00
1137;DHT22;557;48.466;7.950;2022-08-21T13:57:25;33.10;1.00
1137;DHT22;557;48.466;7.950;2022-08-21T14:00:16;33.50;1.00
1137;DHT22;557;48.466;7.950;2022-08-21T14:03:07;33.30;1.00
1137;DHT22;557;48.466;7.950;2022-08-21T14:05:54;33.00;1.00
1137;DHT22;557;48.466;7.950;2022-08-21T14:08:40;32.80;1.00
1137;DHT22;557;48.466;7.950;2022-08-21T14:11:31;33.10;1.00
1137;DHT22;557;48.466;7.950;2022-08-21T14:14:23;33.00;1.00
1137;DHT22;557;48.466;7.950;2022-08-21T14:17:12;32.80;1.00
1137;DHT22;557;48.466;7.950;2022-08-21T14:19:59;32.20;1.00
1137;DHT22;557;48.466;7.950;2022-08-21T14:22:47;32.10;1.00
1137;DHT22;557;48.466;7.950;2022-08-21T14:25:40;32.30;1.00
1137;DHT22;557;48.466;7.950;2022-08-21T14:28:31;32.70;1.00
1137;DHT22;557;48.466;7.950;2022-08-21T14:31:19;33.70;1.00
1137;DHT22;557;48.466;7.950;2022-08-21T14:34:05;33.10;1.00
1137;DHT22;557;48.466;7.950;2022-08-21T14:36:52;32.90;1.00
1137;DHT22;557;48.466;7.950;2022-08-21T14:39:39;33.20;1.00
1137;DHT22;557;48.466;7.950;2022-08-21T14:42:25;32.80;1.00
1137;DHT22;557;48.466;7.950;2022-08-21T14:45:15;32.20;1.00
1137;DHT22;557;48.466;7.950;2022-08-21T14:48:02;31.90;1.00
1137;DHT22;557;48.466;7.950;2022-08-21T14:50:48;31.40;1.00
1137;DHT22;557;48.466;7.950;2022-08-21T14:53:34;31.50;1.00
1137;DHT22;557;48.466;7.950;2022-08-21T14:56:21;31.20;1.00
1137;DHT22;557;48.466;7.950;2022-08-21T14:59:08;31.20;1.00
1137;DHT22;557;48.466;7.950;2022-08-21T15:01:54;31.50;1.00
1137;DHT22;557;48.466;7.950;2022-08-21T15:04:40;31.60;1.00
1137;DHT22;557;48.466;7.950;2022-08-21T15:07:27;31.60;1.00
1137;DHT22;557;48.466;7.950;2022-08-21T15:10:13;31.00;1.00
1137;DHT22;557;48.466;7.950;2022-08-21T15:13:00;31.00;1.00
1137;DHT22;557;48.466;7.950;2022-08-21T15:15:48;31.10;1.00
1137;DHT22;557;48.466;7.950;2022-08-21T15:18:36;31.00;1.00
1137;DHT22;557;48.466;7.950;2022-08-21T15:21:22;31.00;1.00
1137;DHT22;557;48.466;7.950;2022-08-21T15:24:08;31.10;1.00
1137;DHT22;557;48.466;7.950;2022-08-21T15:26:55;31.20;1.00
1137;DHT22;557;48.466;7.950;2022-08-21T15:29:42;31.20;1.00
1137;DHT22;557;48.466;7.950;2022-08-21T15:32:28;31.20;1.00
1137;DHT22;557;48.466;7.950;2022-08-21T15:35:16;31.40;1.00
1137;DHT22;557;48.466;7.950;2022-08-21T15:38:02;31.50;1.00
1137;DHT22;557;48.466;7.950;2022-08-21T15:40:48;31.60;1.00
1137;DHT22;557;48.466;7.950;2022-08-21T15:43:40;32.20;1.00
1137;DHT22;557;48.466;7.950;2022-08-21T15:46:28;32.30;1.00
1137;DHT22;557;48.466;7.950;2022-08-21T15:49:14;32.20;1.00
1137;DHT22;557;48.466;7.950;2022-08-21T15:51:59;32.00;1.00
1137;DHT22;557;48.466;7.950;2022-08-21T15:54:45;32.10;1.00
1137;DHT22;557;48.466;7.950;2022-08-21T15:57:31;32.50;1.00
1137;DHT22;557;48.466;7.950;2022-08-21T16:00:20;32.60;1.00
1137;DHT22;557;48.466;7.950;2022-08-21T16:03:08;33.10;1.00
1137;DHT22;557;48.466;7.950;2022-08-21T16:05:56;33.10;1.00
1137;DHT22;557;48.466;7.950;2022-08-21T16:14:28;33.00;1.00
1137;DHT22;557;48.466;7.950;2022-08-21T16:17:15;33.00;1.00
1137;DHT22;557;48.466;7.950;2022-08-21T16:20:05;32.50;1.00
1137;DHT22;557;48.466;7.950;2022-08-21T16:22:52;32.60;1.00
1137;DHT22;557;48.466;7.950;2022-08-21T16:25:38;32.40;1.00
1137;DHT22;557;48.466;7.950;2022-08-21T16:28:25;32.70;1.00
1137;DHT22;557;48.466;7.950;2022-08-21T16:31:12;32.30;1.00
1137;DHT22;557;48.466;7.950;2022-08-21T16:33:59;32.40;1.00
1137;DHT22;557;48.466;7.950;2022-08-21T16:36:46;31.90;1.00
1137;DHT22;557;48.466;7.950;2022-08-21T16:39:32;31.30;1.00
1137;DHT22;557;48.466;7.950;2022-08-21T16:42:22;31.30;1.00
1137;DHT22;557;48.466;7.950;2022-08-21T16:45:11;31.20;1.00
1137;DHT22;557;48.466;7.950;2022-08-21T16:47:57;31.00;1.00
1137;DHT22;557;48.466;7.950;2022-08-21T16:50:42;30.90;1.00
1137;DHT22;557;48.466;7.950;2022-08-21T16:53:32;30.50;1.00
1137;DHT22;557;48.466;7.950;2022-08-21T16:56:18;30.30;1.00
1137;DHT22;557;48.466;7.950;2022-08-21T16:59:04;29.90;1.00
1137;DHT22;557;48.466;7.950;2022-08-21T17:01:51;29.70;1.00
1137;DHT22;557;48.466;7.950;2022-08-21T17:04:37;29.40;1.00
1137;DHT22;557;48.466;7.950;2022-08-21T17:07:23;29.00;1.00
1137;DHT22;557;48.466;7.950;2022-08-21T17:10:12;28.60;1.00
1137;DHT22;557;48.466;7.950;2022-08-21T17:12:58;28.30;1.00
1137;DHT22;557;48.466;7.950;2022-08-21T17:15:44;28.30;1.00
1137;DHT22;557;48.466;7.950;2022-08-21T17:18:30;28.20;1.00
1137;DHT22;557;48.466;7.950;2022-08-21T17:21:16;28.00;1.00
1137;DHT22;557;48.466;7.950;2022-08-21T17:24:03;27.80;1.00
1137;DHT22;557;48.466;7.950;2022-08-21T17:26:51;27.60;1.00
1137;DHT22;557;48.466;7.950;2022-08-21T17:29:39;27.30;1.00
1137;DHT22;557;48.466;7.950;2022-08-21T17:32:26;27.10;1.00
1137;DHT22;557;48.466;7.950;2022-08-21T17:35:12;26.90;1.00
1137;DHT22;557;48.466;7.950;2022-08-21T17:37:58;26.60;1.00
1137;DHT22;557;48.466;7.950;2022-08-21T17:40:44;26.40;1.00
1137;DHT22;557;48.466;7.950;2022-08-21T17:43:32;26.20;1.00
1137;DHT22;557;48.466;7.950;2022-08-21T17:46:19;26.00;1.00
1137;DHT22;557;48.466;7.950;2022-08-21T17:49:06;25.90;1.00
1137;DHT22;557;48.466;7.950;2022-08-21T17:51:52;25.70;1.00
1137;DHT22;557;48.466;7.950;2022-08-21T17:54:37;25.50;1.00
1137;DHT22;557;48.466;7.950;2022-08-21T17:57:24;25.30;1.00
1137;DHT22;557;48.466;7.950;2022-08-21T18:00:14;25.10;1.00
1137;DHT22;557;48.466;7.950;2022-08-21T18:03:03;24.90;1.00
1137;DHT22;557;48.466;7.950;2022-08-21T18:05:51;24.80;1.00
1137;DHT22;557;48.466;7.950;2022-08-21T18:08:41;24.70;1.00
1137;DHT22;557;48.466;7.950;2022-08-21T18:11:28;24.60;1.00
1137;DHT22;557;48.466;7.950;2022-08-21T18:14:15;24.40;1.00
1137;DHT22;557;48.466;7.950;2022-08-21T18:17:06;24.30;1.00
1137;DHT22;557;48.466;7.950;2022-08-21T18:19:52;24.10;1.00
1137;DHT22;557;48.466;7.950;2022-08-21T18:22:38;24.00;1.00
1137;DHT22;557;48.466;7.950;2022-08-21T18:25:24;23.80;1.00
1137;DHT22;557;48.466;7.950;2022-08-21T18:28:10;23.70;1.00
1137;DHT22;557;48.466;7.950;2022-08-21T18:30:56;23.60;1.00
1137;DHT22;557;48.466;7.950;2022-08-21T18:33:43;23.50;1.00
1137;DHT22;557;48.466;7.950;2022-08-21T18:36:29;23.30;1.00
1137;DHT22;557;48.466;7.950;2022-08-21T18:39:15;23.20;1.00
1137;DHT22;557;48.466;7.950;2022-08-21T18:42:03;23.10;20.70
1137;DHT22;557;48.466;7.950;2022-08-21T18:44:51;23.00;42.20
1137;DHT22;557;48.466;7.950;2022-08-21T18:47:43;22.80;53.00
1137;DHT22;557;48.466;7.950;2022-08-21T18:50:30;22.70;88.40
1137;DHT22;557;48.466;7.950;2022-08-21T18:53:16;22.50;99.90
1137;DHT22;557;48.466;7.950;2022-08-21T18:56:03;22.50;99.90
1137;DHT22;557;48.466;7.950;2022-08-21T18:58:49;22.40;88.30